静岡空港の過去48時間の天気

静岡空港 (Shizuoka)

現在時刻: 2/25 17:03 JST (2/25 08:03 UTC) 以下の時間は現地時間です。

過去48時間のMETAR気象情報
時間 風向 風速(m/s) 視程 気温(℃) 湿度(%) 気圧(hPa) 天気現象
25 16:00 不定 1 10km以上 12 71 1017
25 15:00 不定 1 10km以上 13 62 1017
25 14:00 不定 1 10km以上 12 62 1018
25 13:00 南東 3 10km以上 12 62 1018
25 12:00 東南東 2 10km以上 13 51 1019
25 11:00 不定 2 10km以上 13 54 1020
25 10:00 不定 1 10km以上 12 58 1021
25 09:00 2 10km以上 11 54 1020
25 08:00 北北西 2 10km以上 9 62 1021
25 07:30 北北西 3 10km以上 7 70 1021
24 21:00 西 5 10km以上 10 46 1019
24 20:00 西 9 10km以上 11 43 1019
24 19:00 西 7 10km以上 11 40 1019
24 18:00 西 6 10km以上 12 38 1019
24 17:00 西南西 8 10km以上 13 35 1018
24 16:00 西南西 10 10km以上 14 31 1018
24 15:00 西南西 9 10km以上 15 29 1018
24 14:00 西 9 10km以上 15 27 1018
24 13:00 西 8 10km以上 16 23 1019
24 12:00 西 6 10km以上 15 25 1020
24 11:00 西 6 10km以上 13 30 1021
24 10:00 西北西 4 10km以上 11 35 1022
24 09:00 西 5 10km以上 8 46 1022
24 08:00 西 5 10km以上 6 52 1022
24 07:30 西 6 10km以上 5 52 1022
23 21:00 西 11 10km以上 6 49 1020
23 20:00 西 12 10km以上 6 49 1019
23 19:00 西 11 10km以上 7 45 1019
23 18:00 西 10 10km以上 8 42 1018
RJNS 250700Z VRB02KT 9999 FEW025 SCT035 BKN040 12/07 Q1017
RJNS 250600Z VRB01KT 9999 FEW030 SCT080 BKN090 13/06 Q1017
RJNS 250500Z VRB02KT 9999 FEW030 BKN090 BKN100 12/05 Q1018
RJNS 250400Z 14005KT 9999 FEW030 BKN090 BKN100 12/05 Q1018
RJNS 250300Z 11003KT 070V160 9999 FEW030 BKN090 BKN100 13/03 Q1019
RJNS 250200Z VRB03KT 9999 FEW030 BKN100 13/04 Q1020
RJNS 250100Z VRB01KT 9999 FEW030 BKN100 12/04 Q1021
RJNS 250000Z 36003KT 300V050 9999 FEW030 SCT100 BKN/// 11/02 Q1020
RJNS 242300Z 33003KT 280V360 9999 FEW030 BKN/// 09/02 Q1021
RJNS 242230Z 33005KT 300V360 9999 FEW030 BKN/// 07/02 Q1021
RJNS 241200Z 26010KT 9999 FEW030 BKN/// 10/M01 Q1019
RJNS 241100Z 28018KT 9999 FEW030 BKN/// 11/M01 Q1019
RJNS 241000Z 26014KT 9999 FEW030 BKN/// 11/M02 Q1019
RJNS 240900Z 26012KT 220V280 9999 FEW030 SCT/// 12/M02 Q1019
RJNS 240800Z 25015KT 220V280 CAVOK 13/M02 Q1018
RJNS 240700Z 25019G29KT 9999 FEW030 14/M03 Q1018
RJNS 240600Z 25017KT 9999 FEW030 15/M03 Q1018
RJNS 240500Z 26017KT 9999 FEW030 15/M04 Q1018
RJNS 240400Z 28015KT 240V310 9999 FEW030 16/M05 Q1019
RJNS 240300Z 26012KT 230V290 9999 FEW030 15/M05 Q1020
RJNS 240200Z 27011KT 220V290 9999 FEW030 13/M04 Q1021
RJNS 240100Z 29008KT 9999 FEW030 11/M04 Q1022
RJNS 240000Z 27010KT 9999 FEW030 08/M03 Q1022
RJNS 232300Z 26010KT 9999 FEW030 06/M03 Q1022
RJNS 232230Z 27012KT 9999 FEW030 05/M04 Q1022
RJNS 231200Z 27021KT 9999 FEW030 06/M04 Q1020
RJNS 231100Z 27023KT 9999 FEW030 06/M04 Q1019
RJNS 231000Z 26021KT 9999 FEW030 07/M04 Q1019
RJNS 230900Z 26019KT 9999 FEW030 08/M04 Q1018